Terminal Aerodrome Forecast
Issued by NWS

Home | Current Version | Previous Version | Text Only | Print | Product List | Glossary On
Versions: 1 2 3 4 5 6 7 8 9 10 11 12 13 14 15
000
FTUS45 KGJT 230521
TAFEGE
TAF
KEGE 230521Z 2306/2406 16004KT P6SM SCT250
     FM231800 23012KT P6SM SCT200
     FM232000 23016G23KT P6SM SCT100
     FM240200 22006KT P6SM FEW250
      AMD LTD TO CLD VIS AND WIND TIL 231300=

USA.gov is the U.S. government's official web portal to all federal, state and local government web resources and services.